createdAt,value
2023-01-15T00:01:04.446Z,8.90
2023-01-15T00:03:31.960Z,8.90
2023-01-15T00:06:04.806Z,8.90
2023-01-15T00:08:31.491Z,8.90
2023-01-15T00:10:58.219Z,8.90
2023-01-15T00:13:24.894Z,8.90
2023-01-15T00:15:51.573Z,8.90
2023-01-15T00:18:18.194Z,8.90
2023-01-15T00:20:44.870Z,8.90
2023-01-15T00:23:31.509Z,9.00
2023-01-15T00:26:24.303Z,9.00
2023-01-15T00:28:50.976Z,9.00
2023-01-15T00:31:17.727Z,9.00
2023-01-15T00:33:44.390Z,9.00
2023-01-15T00:36:11.033Z,9.00
2023-01-15T00:38:37.724Z,9.10
2023-01-15T00:41:04.461Z,9.10
2023-01-15T00:43:31.163Z,9.10
2023-01-15T00:45:57.815Z,9.10
2023-01-15T00:48:24.487Z,9.20
2023-01-15T00:50:51.127Z,9.20
2023-01-15T00:53:17.774Z,9.20
2023-01-15T00:55:44.654Z,9.20
2023-01-15T00:58:11.421Z,9.20
2023-01-15T01:00:38.133Z,9.30
2023-01-15T01:03:04.864Z,9.30
2023-01-15T01:05:32.252Z,9.30
2023-01-15T01:07:59.331Z,9.30
2023-01-15T01:10:27.238Z,9.30
2023-01-15T01:12:54.186Z,9.30
2023-01-15T01:15:22.017Z,9.30
2023-01-15T01:17:49.219Z,9.40
2023-01-15T01:20:17.545Z,9.40
2023-01-15T01:22:44.729Z,9.40
2023-01-15T01:25:11.429Z,9.40
2023-01-15T01:27:38.099Z,9.50
2023-01-15T01:30:05.219Z,9.50
2023-01-15T01:32:31.861Z,9.50
2023-01-15T01:34:58.531Z,9.50
2023-01-15T01:37:25.197Z,9.50
2023-01-15T01:39:51.833Z,9.60
2023-01-15T01:42:18.728Z,9.60
2023-01-15T01:44:45.347Z,9.50
2023-01-15T01:47:16.156Z,9.60
2023-01-15T01:49:44.398Z,9.60
2023-01-15T01:52:20.926Z,9.60
2023-01-15T01:54:49.914Z,9.60
2023-01-15T01:57:18.166Z,9.60
2023-01-15T01:59:45.285Z,9.60
2023-01-15T02:02:13.908Z,9.60
2023-01-15T02:04:41.513Z,9.60
2023-01-15T02:07:08.493Z,9.60
2023-01-15T02:09:35.171Z,9.60
2023-01-15T02:12:11.591Z,9.60
2023-01-15T02:14:59.996Z,9.60
2023-01-15T02:17:38.134Z,9.60
2023-01-15T02:20:19.928Z,9.70
2023-01-15T02:23:01.633Z,9.70
2023-01-15T02:26:02.615Z,9.70
2023-01-15T02:28:38.784Z,9.70
2023-01-15T02:31:17.921Z,9.70
2023-01-15T02:34:02.098Z,9.70
2023-01-15T02:36:31.666Z,9.70
2023-01-15T02:39:02.019Z,9.70
2023-01-15T02:41:34.648Z,9.70
2023-01-15T02:44:03.939Z,9.80
2023-01-15T02:46:34.018Z,9.80
2023-01-15T02:49:02.903Z,9.80
2023-01-15T02:51:47.194Z,9.80
2023-01-15T02:54:16.469Z,9.80
2023-01-15T02:56:45.557Z,9.80
2023-01-15T02:59:22.320Z,9.80
2023-01-15T03:02:00.628Z,9.80
2023-01-15T03:04:33.631Z,9.90
2023-01-15T03:07:21.806Z,9.90
2023-01-15T03:09:48.935Z,9.90
2023-01-15T03:12:22.017Z,9.90
2023-01-15T03:15:11.633Z,9.90
2023-01-15T03:17:48.609Z,9.90
2023-01-15T03:20:25.133Z,9.90
2023-01-15T03:22:57.059Z,9.90
2023-01-15T03:25:31.312Z,9.90
2023-01-15T03:28:01.343Z,9.90
2023-01-15T03:30:28.392Z,9.90
2023-01-15T03:32:55.549Z,9.90
2023-01-15T03:35:52.809Z,9.90
2023-01-15T03:38:22.531Z,9.90
2023-01-15T03:41:03.305Z,9.90
2023-01-15T03:44:14.054Z,9.90
2023-01-15T03:47:04.769Z,9.90
2023-01-15T03:49:40.859Z,9.90
2023-01-15T03:52:19.150Z,9.80
2023-01-15T03:55:04.024Z,9.80
2023-01-15T03:57:41.203Z,9.80
2023-01-15T04:00:15.433Z,9.80
2023-01-15T04:02:44.725Z,9.80
2023-01-15T04:05:12.000Z,9.80
2023-01-15T04:07:39.399Z,9.80
2023-01-15T04:10:09.214Z,9.80
2023-01-15T04:12:35.871Z,9.80
2023-01-15T04:15:02.637Z,9.80
2023-01-15T04:17:29.361Z,9.80
2023-01-15T04:19:56.177Z,9.80
2023-01-15T04:22:22.895Z,9.80
2023-01-15T04:24:49.650Z,9.80
2023-01-15T04:27:16.287Z,9.80
2023-01-15T04:29:43.052Z,9.80
2023-01-15T04:32:09.746Z,9.80
2023-01-15T04:34:36.519Z,9.80
2023-01-15T04:37:03.491Z,9.80
2023-01-15T04:39:30.232Z,9.80
2023-01-15T04:42:15.487Z,9.80
2023-01-15T04:44:42.450Z,9.80
2023-01-15T04:47:09.202Z,9.80
2023-01-15T04:49:36.127Z,9.80
2023-01-15T04:52:03.076Z,9.80
2023-01-15T04:54:29.944Z,9.70
2023-01-15T04:56:56.660Z,9.70
2023-01-15T04:59:26.077Z,9.70
2023-01-15T05:02:03.963Z,9.70
2023-01-15T05:04:32.215Z,9.70
2023-01-15T05:07:00.637Z,9.70
2023-01-15T05:09:27.328Z,9.70
2023-01-15T05:11:53.982Z,9.70
2023-01-15T05:14:20.639Z,9.80
2023-01-15T05:16:47.303Z,9.70
2023-01-15T05:19:14.018Z,9.70
2023-01-15T05:21:42.971Z,9.70
2023-01-15T05:24:15.679Z,9.70
2023-01-15T05:26:43.191Z,9.70
2023-01-15T05:29:11.181Z,9.70
2023-01-15T05:31:37.886Z,9.80
2023-01-15T05:34:04.604Z,9.70
2023-01-15T05:36:32.392Z,9.60
2023-01-15T05:39:01.753Z,9.50
2023-01-15T05:41:48.622Z,9.30
2023-01-15T05:44:16.589Z,9.20
2023-01-15T05:46:44.825Z,9.10
2023-01-15T05:49:14.290Z,8.90
2023-01-15T05:51:41.935Z,8.80
2023-01-15T05:54:12.427Z,8.70
2023-01-15T05:56:39.610Z,8.70
2023-01-15T05:59:07.347Z,8.60
2023-01-15T06:01:34.806Z,8.50
2023-01-15T06:04:03.561Z,8.40
2023-01-15T06:06:30.786Z,8.40
2023-01-15T06:08:57.477Z,8.30
2023-01-15T06:11:24.261Z,8.30
2023-01-15T06:13:51.453Z,8.20
2023-01-15T06:16:18.904Z,8.20
2023-01-15T06:18:46.108Z,8.20
2023-01-15T06:21:14.200Z,8.20
2023-01-15T06:23:41.855Z,8.10
2023-01-15T06:26:18.488Z,8.10
2023-01-15T06:28:46.660Z,8.10
2023-01-15T06:31:17.036Z,8.10
2023-01-15T06:33:44.440Z,8.10
2023-01-15T06:36:13.764Z,8.00
2023-01-15T06:38:41.373Z,8.00
2023-01-15T06:41:30.579Z,8.00
2023-01-15T06:44:15.861Z,7.90
2023-01-15T06:47:06.888Z,7.90
2023-01-15T06:49:34.592Z,7.90
2023-01-15T06:52:01.545Z,7.90
2023-01-15T06:54:28.387Z,7.90
2023-01-15T06:56:55.245Z,7.90
2023-01-15T06:59:22.091Z,7.90
2023-01-15T07:01:48.759Z,7.90
2023-01-15T07:04:16.122Z,7.90
2023-01-15T07:06:42.807Z,7.90
2023-01-15T07:09:09.665Z,7.90
2023-01-15T07:11:49.132Z,7.90
2023-01-15T07:14:21.243Z,7.90
2023-01-15T07:16:48.157Z,7.90
2023-01-15T07:19:15.497Z,7.90
2023-01-15T07:21:42.263Z,7.90
2023-01-15T07:24:09.465Z,7.90
2023-01-15T07:26:36.373Z,7.90
2023-01-15T07:29:03.605Z,7.90
2023-01-15T07:31:30.380Z,7.90
2023-01-15T07:33:57.567Z,7.90
2023-01-15T07:36:25.318Z,7.90
2023-01-15T07:38:52.128Z,7.90
2023-01-15T07:41:37.563Z,7.90
2023-01-15T07:44:23.141Z,7.90
2023-01-15T07:47:08.585Z,7.90
2023-01-15T07:49:48.388Z,7.80
2023-01-15T07:52:20.163Z,7.80
2023-01-15T07:54:48.363Z,7.80
2023-01-15T07:57:18.985Z,7.80
2023-01-15T07:59:45.700Z,7.90
2023-01-15T08:02:13.079Z,7.90
2023-01-15T08:04:40.193Z,7.90
2023-01-15T08:07:08.009Z,7.80
2023-01-15T08:09:35.599Z,7.80
2023-01-15T08:12:22.565Z,7.80
2023-01-15T08:15:08.047Z,7.80
2023-01-15T08:17:35.982Z,7.80
2023-01-15T08:20:08.324Z,7.80
2023-01-15T08:22:34.975Z,7.80
2023-01-15T08:25:01.628Z,7.70
2023-01-15T08:27:29.035Z,7.80
2023-01-15T08:29:56.743Z,7.80
2023-01-15T08:32:24.248Z,7.80
2023-01-15T08:34:50.972Z,7.80
2023-01-15T08:37:17.717Z,7.80
2023-01-15T08:39:44.433Z,7.80
2023-01-15T08:42:11.160Z,7.80
2023-01-15T08:44:37.789Z,7.80
2023-01-15T08:47:04.594Z,7.80
2023-01-15T08:49:31.260Z,7.80
2023-01-15T08:51:58.204Z,7.70
2023-01-15T08:54:25.512Z,7.80
2023-01-15T08:56:52.521Z,7.70
2023-01-15T08:59:19.352Z,7.70
2023-01-15T09:01:46.146Z,7.70
2023-01-15T09:04:18.253Z,7.60
2023-01-15T09:06:46.209Z,7.60
2023-01-15T09:09:13.549Z,7.70
2023-01-15T09:11:41.952Z,7.70
2023-01-15T09:14:56.002Z,7.60
2023-01-15T09:16:57.753Z,7.60
2023-01-15T09:19:24.471Z,7.60
2023-01-15T09:21:51.151Z,7.50
2023-01-15T09:24:17.802Z,7.50
2023-01-15T09:26:44.471Z,7.60
2023-01-15T09:29:11.497Z,7.50
2023-01-15T09:31:38.168Z,7.50
2023-01-15T09:34:04.887Z,7.40
2023-01-15T09:36:33.936Z,7.40
2023-01-15T09:39:01.685Z,7.40
2023-01-15T09:42:08.127Z,7.30
2023-01-15T09:44:52.640Z,7.30
2023-01-15T09:47:30.726Z,7.30
2023-01-15T09:50:04.916Z,7.30
2023-01-15T09:53:03.771Z,7.30
2023-01-15T09:55:33.789Z,7.40
2023-01-15T09:58:04.862Z,7.40
2023-01-15T10:00:52.516Z,7.30
2023-01-15T10:03:35.900Z,7.30
2023-01-15T10:06:06.805Z,7.30
2023-01-15T10:08:50.484Z,7.20
2023-01-15T10:11:21.968Z,7.30
2023-01-15T10:14:06.150Z,7.30
2023-01-15T10:16:36.127Z,7.30
2023-01-15T10:19:04.051Z,7.30
2023-01-15T10:21:33.461Z,7.20
2023-01-15T10:24:19.256Z,7.20
2023-01-15T10:26:53.333Z,7.00
2023-01-15T10:29:37.569Z,7.00
2023-01-15T10:32:12.283Z,6.90
2023-01-15T10:35:22.392Z,6.90
2023-01-15T10:37:54.138Z,6.90
2023-01-15T10:40:43.254Z,6.80
2023-01-15T10:43:25.961Z,6.80
2023-01-15T10:46:09.964Z,6.80
2023-01-15T10:48:42.693Z,6.70
2023-01-15T10:51:27.321Z,6.70
2023-01-15T10:54:05.073Z,6.70
2023-01-15T10:56:33.849Z,6.70
2023-01-15T10:59:16.748Z,6.70
2023-01-15T11:01:43.986Z,6.70
2023-01-15T11:04:14.878Z,6.70
2023-01-15T11:06:42.417Z,6.70
2023-01-15T11:09:22.724Z,6.70
2023-01-15T11:11:59.904Z,6.70
2023-01-15T11:14:57.314Z,6.70
2023-01-15T11:17:46.877Z,6.70
2023-01-15T11:20:27.994Z,6.70
2023-01-15T11:22:57.164Z,6.70
2023-01-15T11:25:32.132Z,6.70
2023-01-15T11:28:01.592Z,6.70
2023-01-15T11:30:34.486Z,6.70
2023-01-15T11:33:06.279Z,6.60
2023-01-15T11:35:34.597Z,6.60
2023-01-15T11:38:14.128Z,6.70
2023-01-15T11:40:55.225Z,6.70
2023-01-15T11:43:43.652Z,6.70
2023-01-15T11:46:50.271Z,6.70
2023-01-15T11:49:38.594Z,6.70
2023-01-15T11:52:16.592Z,6.60
2023-01-15T11:54:48.473Z,6.60
2023-01-15T11:57:27.851Z,6.60
2023-01-15T11:59:54.631Z,6.60
2023-01-15T12:02:29.963Z,6.70
2023-01-15T12:05:00.369Z,6.70
2023-01-15T12:07:27.228Z,6.60
2023-01-15T12:10:43.481Z,6.50
2023-01-15T12:13:25.167Z,6.50
2023-01-15T12:16:03.535Z,6.40
2023-01-15T12:18:45.285Z,6.40
2023-01-15T12:21:41.612Z,6.40
2023-01-15T12:24:14.281Z,6.30
2023-01-15T12:26:55.596Z,6.40
2023-01-15T12:29:27.398Z,6.40
2023-01-15T12:32:02.712Z,6.40
2023-01-15T12:34:39.366Z,6.40
2023-01-15T12:37:28.120Z,6.40
2023-01-15T12:40:26.943Z,6.40
2023-01-15T12:43:13.587Z,6.30
2023-01-15T12:45:42.539Z,6.30
2023-01-15T12:48:31.967Z,6.30
2023-01-15T12:51:02.046Z,6.30
2023-01-15T12:53:53.041Z,6.30
2023-01-15T12:56:23.267Z,6.30
2023-01-15T12:58:55.648Z,6.30
2023-01-15T13:01:41.720Z,6.40
2023-01-15T13:04:11.305Z,6.40
2023-01-15T13:06:42.056Z,6.30
2023-01-15T13:09:27.589Z,6.30
2023-01-15T13:11:54.292Z,6.40
2023-01-15T13:14:22.873Z,6.40
2023-01-15T13:17:07.616Z,6.40
2023-01-15T13:19:46.418Z,6.40
2023-01-15T13:22:22.120Z,6.40
2023-01-15T13:25:20.735Z,6.40
2023-01-15T13:28:05.512Z,6.40
2023-01-15T13:30:41.504Z,6.40
2023-01-15T13:33:35.832Z,6.40
2023-01-15T13:36:10.512Z,6.50
2023-01-15T13:38:45.649Z,6.50
2023-01-15T13:41:44.106Z,6.60
2023-01-15T13:44:20.094Z,6.60
2023-01-15T13:46:57.996Z,6.60
2023-01-15T13:49:32.765Z,6.60
2023-01-15T13:52:04.171Z,6.60
2023-01-15T13:54:35.690Z,6.60
2023-01-15T13:57:10.336Z,6.60
2023-01-15T13:59:44.948Z,6.50
2023-01-15T14:02:29.729Z,6.50
2023-01-15T14:04:57.673Z,6.50
2023-01-15T14:07:34.924Z,6.50
2023-01-15T14:10:25.727Z,6.50
2023-01-15T14:13:14.067Z,6.50
2023-01-15T14:15:47.881Z,6.60
2023-01-15T14:18:35.665Z,6.60
2023-01-15T14:21:33.281Z,6.50
2023-01-15T14:24:15.066Z,6.60
2023-01-15T14:27:14.019Z,6.60
2023-01-15T14:29:53.355Z,6.70
2023-01-15T14:32:40.211Z,6.80
2023-01-15T14:35:18.506Z,6.80
2023-01-15T14:37:52.444Z,6.80
2023-01-15T14:40:25.227Z,6.70
2023-01-15T14:43:01.349Z,6.70
2023-01-15T14:45:44.943Z,6.60
2023-01-15T14:48:19.341Z,6.60
2023-01-15T14:50:47.486Z,6.60
2023-01-15T14:53:14.150Z,6.60
2023-01-15T14:55:49.916Z,6.60
2023-01-15T14:58:34.338Z,6.60
2023-01-15T15:01:21.315Z,6.60
2023-01-15T15:04:22.198Z,6.50
2023-01-15T15:07:02.319Z,6.50
2023-01-15T15:09:50.536Z,6.50
2023-01-15T15:12:35.256Z,6.50
2023-01-15T15:15:21.401Z,6.40
2023-01-15T15:18:13.175Z,6.50
2023-01-15T15:21:04.453Z,6.50
2023-01-15T15:23:43.492Z,6.50
2023-01-15T15:26:40.019Z,6.50
2023-01-15T15:29:09.653Z,6.50
2023-01-15T15:31:39.486Z,6.40
2023-01-15T15:34:07.698Z,6.40
2023-01-15T15:36:39.541Z,6.30
2023-01-15T15:39:47.219Z,6.20
2023-01-15T15:42:50.759Z,6.20
2023-01-15T15:45:47.332Z,6.10
2023-01-15T15:48:39.971Z,6.10
2023-01-15T15:51:25.359Z,6.10
2023-01-15T15:54:21.512Z,6.00
2023-01-15T15:57:14.442Z,6.00
2023-01-15T15:59:52.148Z,5.90
2023-01-15T16:02:21.020Z,5.90
2023-01-15T16:04:55.562Z,5.90
2023-01-15T16:07:25.964Z,5.90
2023-01-15T16:09:56.636Z,5.90
2023-01-15T16:12:24.533Z,5.90
2023-01-15T16:14:52.436Z,5.90
2023-01-15T16:17:19.429Z,5.80
2023-01-15T16:19:46.524Z,5.80
2023-01-15T16:22:17.803Z,5.80
2023-01-15T16:24:57.180Z,5.90
2023-01-15T16:27:28.688Z,5.90
2023-01-15T16:29:55.518Z,5.90
2023-01-15T16:32:30.572Z,5.90
2023-01-15T16:35:16.060Z,5.90
2023-01-15T16:37:46.521Z,5.90
2023-01-15T16:40:35.332Z,6.00
2023-01-15T16:43:07.483Z,6.00
2023-01-15T16:45:35.781Z,6.00
2023-01-15T16:48:08.631Z,6.00
2023-01-15T16:50:37.013Z,6.10
2023-01-15T16:53:05.208Z,6.10
2023-01-15T16:55:35.890Z,6.10
2023-01-15T16:58:14.452Z,6.10
2023-01-15T17:00:43.600Z,6.00
2023-01-15T17:03:19.500Z,6.00
2023-01-15T17:05:49.410Z,6.00
2023-01-15T17:08:18.925Z,6.00
2023-01-15T17:10:56.801Z,5.90
2023-01-15T17:13:38.324Z,5.90
2023-01-15T17:16:16.975Z,6.00
2023-01-15T17:18:44.616Z,5.90
2023-01-15T17:21:27.374Z,6.00
2023-01-15T17:23:55.412Z,6.00
2023-01-15T17:26:25.092Z,6.00
2023-01-15T17:28:52.339Z,6.00
2023-01-15T17:31:31.654Z,6.00
2023-01-15T17:34:00.605Z,6.00
2023-01-15T17:36:29.167Z,6.00
2023-01-15T17:38:56.438Z,6.00
2023-01-15T17:41:23.441Z,5.90
2023-01-15T17:43:50.484Z,5.90
2023-01-15T17:46:17.357Z,5.90
2023-01-15T17:48:44.977Z,5.90
2023-01-15T17:51:14.083Z,6.00
2023-01-15T17:53:40.887Z,5.90
2023-01-15T17:56:26.715Z,6.00
2023-01-15T17:59:12.316Z,6.00
2023-01-15T18:02:01.166Z,6.00
2023-01-15T18:04:57.921Z,5.90
2023-01-15T18:07:28.207Z,6.00
2023-01-15T18:09:56.516Z,6.10
2023-01-15T18:12:23.579Z,6.00
2023-01-15T18:14:50.261Z,6.00
2023-01-15T18:17:16.900Z,6.00
2023-01-15T18:19:43.601Z,6.00
2023-01-15T18:22:10.623Z,6.00
2023-01-15T18:24:37.326Z,6.00
2023-01-15T18:27:04.003Z,5.90
2023-01-15T18:29:30.655Z,5.90
2023-01-15T18:32:00.120Z,5.80
2023-01-15T18:34:26.931Z,5.80
2023-01-15T18:36:53.595Z,5.70
2023-01-15T18:39:20.248Z,5.70
2023-01-15T18:41:46.936Z,5.80
2023-01-15T18:44:35.534Z,5.80
2023-01-15T18:47:09.888Z,5.80
2023-01-15T18:49:36.924Z,5.70
2023-01-15T18:52:22.383Z,5.70
2023-01-15T18:54:49.180Z,5.70
2023-01-15T18:57:16.559Z,5.70
2023-01-15T18:59:45.189Z,5.70
2023-01-15T19:02:13.553Z,5.60
2023-01-15T19:04:42.176Z,5.60
2023-01-15T19:07:09.919Z,5.60
2023-01-15T19:09:37.338Z,5.60
2023-01-15T19:12:05.268Z,5.50
2023-01-15T19:14:50.892Z,5.50
2023-01-15T19:17:39.153Z,5.50
2023-01-15T19:20:07.907Z,5.50
2023-01-15T19:22:53.100Z,5.60
2023-01-15T19:25:23.066Z,5.60
2023-01-15T19:27:50.541Z,5.60
2023-01-15T19:30:17.864Z,5.60
2023-01-15T19:32:44.705Z,5.50
2023-01-15T19:35:11.440Z,5.50
2023-01-15T19:37:39.845Z,5.50
2023-01-15T19:40:11.181Z,5.50
2023-01-15T19:42:56.727Z,5.50
2023-01-15T19:45:42.224Z,5.50
2023-01-15T19:48:31.638Z,5.50
2023-01-15T19:50:58.430Z,5.50
2023-01-15T19:53:25.355Z,5.50
2023-01-15T19:55:52.232Z,5.50
2023-01-15T19:58:19.403Z,5.50
2023-01-15T20:00:52.694Z,5.50
2023-01-15T20:03:19.758Z,5.50
2023-01-15T20:05:47.099Z,5.40
2023-01-15T20:08:17.217Z,5.50
2023-01-15T20:10:47.671Z,5.40
2023-01-15T20:13:35.510Z,5.50
2023-01-15T20:16:11.345Z,5.50
2023-01-15T20:18:39.227Z,5.50
2023-01-15T20:21:06.808Z,5.50
2023-01-15T20:23:35.844Z,5.50
2023-01-15T20:26:05.793Z,5.50
2023-01-15T20:28:33.462Z,5.50
2023-01-15T20:31:00.229Z,5.50
2023-01-15T20:33:26.947Z,5.60
2023-01-15T20:35:54.592Z,5.60
2023-01-15T20:38:23.330Z,5.60
2023-01-15T20:40:52.016Z,5.60
2023-01-15T20:43:38.620Z,5.60
2023-01-15T20:46:12.276Z,5.60
2023-01-15T20:48:57.624Z,5.60
2023-01-15T20:51:24.338Z,5.60
2023-01-15T20:53:53.089Z,5.60
2023-01-15T20:56:19.952Z,5.60
2023-01-15T20:58:46.683Z,5.60
2023-01-15T21:01:13.574Z,5.60
2023-01-15T21:03:40.445Z,5.60
2023-01-15T21:06:08.205Z,5.70
2023-01-15T21:08:35.496Z,5.70
2023-01-15T21:11:02.450Z,5.70
2023-01-15T21:13:30.949Z,5.70
2023-01-15T21:16:06.165Z,5.70
2023-01-15T21:18:35.655Z,5.70
2023-01-15T21:21:09.258Z,5.70
2023-01-15T21:23:35.917Z,5.70
2023-01-15T21:26:02.894Z,5.60
2023-01-15T21:28:30.213Z,5.60
2023-01-15T21:30:57.122Z,5.60
2023-01-15T21:33:23.916Z,5.60
2023-01-15T21:35:50.583Z,5.60
2023-01-15T21:38:17.237Z,5.60
2023-01-15T21:40:43.909Z,5.60
2023-01-15T21:43:29.608Z,5.50
2023-01-15T21:46:04.008Z,5.50
2023-01-15T21:48:31.069Z,5.40
2023-01-15T21:50:57.873Z,5.40
2023-01-15T21:53:24.682Z,5.40
2023-01-15T21:55:52.085Z,5.40
2023-01-15T21:58:18.863Z,5.40
2023-01-15T22:00:45.496Z,5.30
2023-01-15T22:03:13.978Z,5.30
2023-01-15T22:05:40.697Z,5.30
2023-01-15T22:08:08.440Z,5.30
2023-01-15T22:10:35.112Z,5.30
2023-01-15T22:13:01.899Z,5.30
2023-01-15T22:15:28.639Z,5.20
2023-01-15T22:17:56.012Z,5.20
2023-01-15T22:20:22.810Z,5.20
2023-01-15T22:22:49.475Z,5.10
2023-01-15T22:25:16.210Z,5.10
2023-01-15T22:27:43.508Z,5.20
2023-01-15T22:30:12.550Z,5.20
2023-01-15T22:32:39.451Z,5.20
2023-01-15T22:35:07.465Z,5.20
2023-01-15T22:37:34.137Z,5.20
2023-01-15T22:40:00.800Z,5.20
2023-01-15T22:42:27.712Z,5.20
2023-01-15T22:44:57.130Z,5.20
2023-01-15T22:47:23.858Z,5.20
2023-01-15T22:49:50.809Z,5.20
2023-01-15T22:52:17.886Z,5.20
2023-01-15T22:54:46.110Z,5.10
2023-01-15T22:57:13.430Z,5.10
2023-01-15T22:59:40.205Z,5.00
2023-01-15T23:02:07.154Z,5.00
2023-01-15T23:04:34.107Z,5.00
2023-01-15T23:07:01.081Z,4.90
2023-01-15T23:09:27.826Z,4.90
2023-01-15T23:11:54.544Z,4.80
2023-01-15T23:14:22.140Z,4.80
2023-01-15T23:16:49.776Z,4.80
2023-01-15T23:19:17.414Z,4.90
2023-01-15T23:21:44.722Z,4.90
2023-01-15T23:24:11.785Z,4.90
2023-01-15T23:26:39.303Z,4.80
2023-01-15T23:29:06.368Z,4.80
2023-01-15T23:31:33.291Z,4.80
2023-01-15T23:34:00.407Z,4.80
2023-01-15T23:36:27.706Z,4.80
2023-01-15T23:38:55.221Z,4.80
2023-01-15T23:41:43.893Z,4.70
2023-01-15T23:44:37.384Z,4.70
2023-01-15T23:47:04.619Z,4.70
2023-01-15T23:49:31.332Z,4.60
2023-01-15T23:51:58.378Z,4.60
2023-01-15T23:54:30.037Z,4.60
2023-01-15T23:56:57.930Z,4.60
2023-01-15T23:59:24.854Z,4.60
